createdAt,value
2019-01-02T00:00:33.921Z,102491.52
2019-01-02T00:03:03.793Z,102487.98
2019-01-02T00:05:33.974Z,102491.25
2019-01-02T00:08:03.781Z,102491.25
2019-01-02T00:10:33.930Z,102500.36
2019-01-02T00:13:03.749Z,102499.08
2019-01-02T00:15:33.893Z,102497.91
2019-01-02T00:18:03.672Z,102498.31
2019-01-02T00:20:33.441Z,102501.30
2019-01-02T00:23:03.237Z,102512.70
2019-01-02T00:25:33.164Z,102502.38
2019-01-02T00:28:03.349Z,102499.98
2019-01-02T00:30:33.112Z,102498.80
2019-01-02T00:33:03.266Z,102508.63
2019-01-02T00:35:33.048Z,102512.38
2019-01-02T00:38:03.197Z,102513.97
2019-01-02T00:40:33.013Z,102500.41
2019-01-02T00:43:02.803Z,102501.50
2019-01-02T00:45:32.569Z,102497.84
2019-01-02T00:48:02.359Z,102499.61
2019-01-02T00:50:32.430Z,102506.46
2019-01-02T00:53:02.606Z,102507.25
2019-01-02T00:55:33.587Z,102504.28
2019-01-02T00:58:03.375Z,102506.93
2019-01-02T01:00:33.427Z,102508.73
2019-01-02T01:03:03.281Z,102509.31
2019-01-02T01:05:33.057Z,102512.48
2019-01-02T01:08:02.822Z,102513.50
2019-01-02T01:10:32.638Z,102515.77
2019-01-02T01:13:02.411Z,102524.27
2019-01-02T01:15:32.205Z,102521.89
2019-01-02T01:18:01.973Z,102522.88
2019-01-02T01:20:32.078Z,102522.57
2019-01-02T01:23:01.855Z,102523.48
2019-01-02T01:25:32.020Z,102523.30
2019-01-02T01:28:01.803Z,102531.52
2019-01-02T01:30:31.708Z,102533.31
2019-01-02T01:33:02.068Z,102540.16
2019-01-02T01:35:31.855Z,102549.74
2019-01-02T01:38:01.647Z,102556.32
2019-01-02T01:40:31.418Z,102553.41
2019-01-02T01:43:01.236Z,102553.22
2019-01-02T01:45:31.611Z,102551.76
2019-01-02T01:48:01.559Z,102558.70
2019-01-02T01:50:32.047Z,102559.10
2019-01-02T01:53:01.866Z,102549.56
2019-01-02T01:55:31.652Z,102548.68
2019-01-02T01:58:01.814Z,102549.07
2019-01-02T02:00:31.621Z,102561.08
2019-01-02T02:03:01.354Z,102567.12
2019-01-02T02:05:31.526Z,102560.78
2019-01-02T02:08:01.546Z,102566.52
2019-01-02T02:10:31.334Z,102573.27
2019-01-02T02:13:01.489Z,102574.15
2019-01-02T02:15:31.301Z,102571.17
2019-01-02T02:18:01.770Z,102568.90
2019-01-02T02:20:31.543Z,102567.02
2019-01-02T02:23:01.349Z,102567.59
2019-01-02T02:25:31.398Z,102577.78
2019-01-02T02:28:01.533Z,102577.20
2019-01-02T02:30:31.296Z,102579.97
2019-01-02T02:33:01.203Z,102574.30
2019-01-02T02:35:31.042Z,102578.47
2019-01-02T02:38:01.127Z,102582.71
2019-01-02T02:40:30.887Z,102587.05
2019-01-02T02:43:00.679Z,102594.41
2019-01-02T02:45:31.380Z,102584.59
2019-01-02T02:48:01.550Z,102582.50
2019-01-02T02:50:32.120Z,102579.86
2019-01-02T02:53:02.378Z,102582.31
2019-01-02T02:55:32.463Z,102589.27
2019-01-02T02:58:02.636Z,102585.19
2019-01-02T03:00:32.426Z,102584.72
2019-01-02T03:03:02.464Z,102584.64
2019-01-02T03:05:32.270Z,102576.59
2019-01-02T03:08:02.034Z,102572.83
2019-01-02T03:10:31.990Z,102578.09
2019-01-02T03:13:02.074Z,102572.12
2019-01-02T03:15:32.142Z,102573.80
2019-01-02T03:18:02.194Z,102573.16
2019-01-02T03:20:31.954Z,102563.94
2019-01-02T03:23:01.836Z,102572.09
2019-01-02T03:25:32.097Z,102582.39
2019-01-02T03:28:02.366Z,102573.81
2019-01-02T03:30:32.503Z,102577.18
2019-01-02T03:33:02.775Z,102582.13
2019-01-02T03:35:33.429Z,102583.71
2019-01-02T03:38:03.209Z,102585.82
2019-01-02T03:40:32.988Z,102583.64
2019-01-02T03:43:02.783Z,102574.02
2019-01-02T03:45:32.563Z,102575.87
2019-01-02T03:48:02.342Z,102585.08
2019-01-02T03:50:32.106Z,102586.46
2019-01-02T03:53:02.051Z,102583.00
2019-01-02T03:55:31.830Z,102580.14
2019-01-02T03:58:01.588Z,102568.27
2019-01-02T04:00:31.429Z,102567.84
2019-01-02T04:03:01.213Z,102558.75
2019-01-02T04:05:31.003Z,102574.81
2019-01-02T04:08:02.684Z,102572.34
2019-01-02T04:10:32.475Z,102583.66
2019-01-02T04:13:02.233Z,102582.73
2019-01-02T04:15:32.021Z,102569.96
2019-01-02T04:18:02.103Z,102577.50
2019-01-02T04:20:31.880Z,102588.61
2019-01-02T04:23:01.761Z,102583.83
2019-01-02T04:25:31.575Z,102573.73
2019-01-02T04:28:01.368Z,102584.84
2019-01-02T04:30:31.160Z,102587.31
2019-01-02T04:33:00.952Z,102584.95
2019-01-02T04:35:30.716Z,102580.49
2019-01-02T04:38:00.843Z,102571.09
2019-01-02T04:40:30.624Z,102565.80
2019-01-02T04:43:00.418Z,102568.69
2019-01-02T04:45:30.217Z,102585.05
2019-01-02T04:47:59.985Z,102585.33
2019-01-02T04:50:29.782Z,102585.54
2019-01-02T04:52:59.575Z,102589.20
2019-01-02T04:55:29.381Z,102590.92
2019-01-02T04:57:59.152Z,102587.64
2019-01-02T05:00:28.968Z,102591.89
2019-01-02T05:02:58.755Z,102593.06
2019-01-02T05:05:28.537Z,102599.10
2019-01-02T05:07:58.520Z,102593.66
2019-01-02T05:10:28.281Z,102591.56
2019-01-02T05:12:58.071Z,102596.14
2019-01-02T05:15:27.829Z,102597.83
2019-01-02T05:17:57.648Z,102603.41
2019-01-02T05:20:27.477Z,102603.19
2019-01-02T05:22:57.249Z,102600.13
2019-01-02T05:25:27.027Z,102598.25
2019-01-02T05:27:56.905Z,102609.36
2019-01-02T05:30:26.693Z,102615.48
2019-01-02T05:32:56.492Z,102619.84
2019-01-02T05:35:26.262Z,102617.58
2019-01-02T05:37:56.056Z,102620.83
2019-01-02T05:40:25.821Z,102625.97
2019-01-02T05:42:55.585Z,102620.44
2019-01-02T05:45:25.399Z,102632.34
2019-01-02T05:47:55.174Z,102633.63
2019-01-02T05:50:24.992Z,102631.70
2019-01-02T05:52:54.753Z,102636.64
2019-01-02T05:55:24.528Z,102628.70
2019-01-02T05:57:54.289Z,102630.64
2019-01-02T06:00:24.083Z,102628.46
2019-01-02T06:02:53.866Z,102631.01
2019-01-02T06:05:23.671Z,102638.97
2019-01-02T06:07:53.424Z,102641.28
2019-01-02T06:10:23.589Z,102646.78
2019-01-02T06:12:53.446Z,102649.80
2019-01-02T06:15:23.234Z,102656.61
2019-01-02T06:17:53.075Z,102660.50
2019-01-02T06:20:22.839Z,102654.83
2019-01-02T06:22:52.725Z,102645.01
2019-01-02T06:25:22.514Z,102655.31
2019-01-02T06:27:52.258Z,102655.89
2019-01-02T06:30:22.059Z,102666.45
2019-01-02T06:32:52.043Z,102660.37
2019-01-02T06:35:21.848Z,102656.89
2019-01-02T06:37:51.605Z,102658.94
2019-01-02T06:40:21.407Z,102665.07
2019-01-02T06:42:51.173Z,102662.92
2019-01-02T06:45:20.951Z,102662.65
2019-01-02T06:47:50.743Z,102665.86
2019-01-02T06:50:22.504Z,102669.15
2019-01-02T06:52:52.304Z,102677.59
2019-01-02T06:55:22.111Z,102674.45
2019-01-02T06:57:51.852Z,102678.17
2019-01-02T07:00:28.622Z,102683.72
2019-01-02T07:02:58.373Z,102689.29
2019-01-02T07:05:28.135Z,102691.27
2019-01-02T07:07:57.924Z,102689.61
2019-01-02T07:10:27.677Z,102694.50
2019-01-02T07:12:57.453Z,102694.50
2019-01-02T07:15:27.228Z,102703.47
2019-01-02T07:17:57.052Z,102703.20
2019-01-02T07:20:27.253Z,102703.42
2019-01-02T07:22:57.136Z,102706.61
2019-01-02T07:25:28.771Z,102713.14
2019-01-02T07:27:58.532Z,102716.20
2019-01-02T07:30:28.422Z,102719.45
2019-01-02T07:32:58.174Z,102721.19
2019-01-02T07:36:06.338Z,102722.06
2019-01-02T07:38:45.985Z,102738.10
2019-01-02T07:41:54.858Z,102736.75
2019-01-02T07:44:47.207Z,102743.60
2019-01-02T07:47:54.967Z,102741.47
2019-01-02T07:50:41.248Z,102738.63
2019-01-02T07:53:30.570Z,102743.83
2019-01-02T07:56:45.699Z,102751.78
2019-01-02T07:59:40.679Z,102753.06
2019-01-02T08:02:35.957Z,102765.05
2019-01-02T08:05:21.876Z,102765.37
2019-01-02T08:08:29.887Z,102762.66
2019-01-02T08:11:37.194Z,102770.30
2019-01-02T08:14:32.902Z,102761.63
2019-01-02T08:17:21.712Z,102769.89
2019-01-02T08:20:38.547Z,102769.23
2019-01-02T08:23:18.879Z,102772.70
2019-01-02T08:26:10.674Z,102771.45
2019-01-02T08:29:17.023Z,102779.66
2019-01-02T08:32:24.888Z,102779.04
2019-01-02T08:35:02.061Z,102777.27
2019-01-02T08:38:02.086Z,102771.35
2019-01-02T08:41:03.828Z,102776.23
2019-01-02T08:44:05.941Z,102768.42
2019-01-02T08:46:48.995Z,102777.43
2019-01-02T08:49:45.783Z,102770.95
2019-01-02T08:52:28.937Z,102779.25
2019-01-02T08:55:30.021Z,102780.66
2019-01-02T08:58:19.432Z,102789.68
2019-01-02T09:01:20.103Z,102789.13
2019-01-02T09:04:20.084Z,102788.36
2019-01-02T09:07:08.753Z,102791.83
2019-01-02T09:10:19.544Z,102801.42
2019-01-02T09:13:13.256Z,102810.48
2019-01-02T09:16:07.092Z,102805.57
2019-01-02T09:18:53.683Z,102811.09
2019-01-02T09:21:43.003Z,102817.54
2019-01-02T09:24:39.710Z,102815.27
2019-01-02T09:27:16.794Z,102817.39
2019-01-02T09:30:07.507Z,102818.00
2019-01-02T09:32:53.179Z,102829.67
2019-01-02T09:36:02.612Z,102834.21
2019-01-02T09:39:08.781Z,102842.50
2019-01-02T09:41:48.907Z,102838.33
2019-01-02T09:44:52.012Z,102831.92
2019-01-02T09:48:01.007Z,102830.05
2019-01-02T09:50:41.061Z,102837.70
2019-01-02T09:53:32.767Z,102830.86
2019-01-02T09:56:44.495Z,102832.95
2019-01-02T09:59:47.077Z,102829.87
2019-01-02T10:02:35.858Z,102837.03
2019-01-02T10:05:42.486Z,102852.59
2019-01-02T10:08:43.693Z,102842.64
2019-01-02T10:11:26.814Z,102846.92
2019-01-02T10:14:37.353Z,102846.50
2019-01-02T10:17:28.786Z,102841.55
2019-01-02T10:20:11.839Z,102843.44
2019-01-02T10:23:04.107Z,102847.00
2019-01-02T10:26:01.866Z,102846.58
2019-01-02T10:28:51.188Z,102848.28
2019-01-02T10:31:37.731Z,102839.92
2019-01-02T10:34:11.960Z,102837.31
2019-01-02T10:36:55.159Z,102835.55
2019-01-02T10:39:41.454Z,102834.95
2019-01-02T10:42:30.016Z,102834.27
2019-01-02T10:45:34.699Z,102840.55
2019-01-02T10:48:08.997Z,102838.41
2019-01-02T10:51:02.258Z,102846.92
2019-01-02T10:53:51.096Z,102843.48
2019-01-02T10:56:37.777Z,102847.64
2019-01-02T10:59:23.784Z,102842.86
2019-01-02T11:02:12.157Z,102839.73
2019-01-02T11:05:24.124Z,102843.00
2019-01-02T11:08:24.629Z,102843.55
2019-01-02T11:11:14.194Z,102839.45
2019-01-02T11:14:23.075Z,102836.25
2019-01-02T11:17:15.118Z,102830.80
2019-01-02T11:20:15.257Z,102833.81
2019-01-02T11:23:09.252Z,102850.13
2019-01-02T11:26:07.119Z,102850.00
2019-01-02T11:29:04.713Z,102847.94
2019-01-02T11:32:07.578Z,102856.19
2019-01-02T11:34:50.297Z,102850.94
2019-01-02T11:37:39.507Z,102850.33
2019-01-02T11:40:50.360Z,102846.85
2019-01-02T11:43:40.943Z,102846.20
2019-01-02T11:46:11.132Z,102840.06
2019-01-02T11:48:40.898Z,102843.05
2019-01-02T11:51:10.689Z,102843.02
2019-01-02T11:53:40.487Z,102841.42
2019-01-02T11:56:10.507Z,102841.88
2019-01-02T11:58:40.288Z,102842.20
2019-01-02T12:01:10.064Z,102835.75
2019-01-02T12:03:40.149Z,102831.00
2019-01-02T12:06:09.905Z,102835.00
2019-01-02T12:08:39.720Z,102835.31
2019-01-02T12:11:09.553Z,102837.64
2019-01-02T12:13:39.359Z,102846.31
2019-01-02T12:16:09.167Z,102834.44
2019-01-02T12:18:38.982Z,102843.23
2019-01-02T12:21:08.811Z,102848.98
2019-01-02T12:23:38.576Z,102847.09
2019-01-02T12:26:08.402Z,102846.86
2019-01-02T12:28:38.168Z,102842.27
2019-01-02T12:31:07.945Z,102842.81
2019-01-02T12:33:37.724Z,102839.06
2019-01-02T12:36:07.559Z,102833.96
2019-01-02T12:38:37.336Z,102836.33
2019-01-02T12:41:07.116Z,102840.77
2019-01-02T12:43:36.903Z,102831.79
2019-01-02T12:46:06.669Z,102842.84
2019-01-02T12:48:36.443Z,102842.22
2019-01-02T12:51:06.248Z,102843.02
2019-01-02T12:53:36.075Z,102843.72
2019-01-02T12:56:05.876Z,102839.45
2019-01-02T12:58:35.777Z,102848.23
2019-01-02T13:01:05.649Z,102848.40
2019-01-02T13:03:46.015Z,102849.09
2019-01-02T13:06:36.899Z,102848.95
2019-01-02T13:09:32.356Z,102855.03
2019-01-02T13:12:20.634Z,102855.97
2019-01-02T13:15:21.900Z,102851.89
2019-01-02T13:18:20.545Z,102859.50
2019-01-02T13:21:04.066Z,102852.02
2019-01-02T13:23:50.323Z,102863.41
2019-01-02T13:26:27.418Z,102871.56
2019-01-02T13:29:18.073Z,102863.14
2019-01-02T13:32:07.637Z,102864.17
2019-01-02T13:35:07.643Z,102869.23
2019-01-02T13:37:41.919Z,102875.48
2019-01-02T13:40:25.123Z,102869.75
2019-01-02T13:43:05.435Z,102869.23
2019-01-02T13:45:42.621Z,102869.77
2019-01-02T13:48:44.100Z,102874.67
2019-01-02T13:51:14.901Z,102873.39
2019-01-02T13:53:44.753Z,102875.89
2019-01-02T13:56:17.315Z,102888.29
2019-01-02T13:58:47.126Z,102879.52
2019-01-02T14:01:16.950Z,102879.56
2019-01-02T14:03:47.257Z,102880.87
2019-01-02T14:06:17.046Z,102891.48
2019-01-02T14:08:47.031Z,102898.83
2019-01-02T14:11:16.825Z,102898.53
2019-01-02T14:13:46.600Z,102897.90
2019-01-02T14:16:16.388Z,102898.19
2019-01-02T14:18:46.338Z,102893.84
2019-01-02T14:21:16.117Z,102898.00
2019-01-02T14:23:45.991Z,102899.52
2019-01-02T14:26:15.764Z,102910.31
2019-01-02T14:28:45.573Z,102916.91
2019-01-02T14:31:15.348Z,102911.67
2019-01-02T14:33:45.138Z,102913.19
2019-01-02T14:36:14.927Z,102916.87
2019-01-02T14:38:44.724Z,102921.41
2019-01-02T14:41:14.712Z,102922.38
2019-01-02T14:43:44.488Z,102927.75
2019-01-02T14:46:14.290Z,102924.19
2019-01-02T14:48:44.092Z,102937.11
2019-01-02T14:51:13.906Z,102931.55
2019-01-02T14:53:43.733Z,102938.98
2019-01-02T14:56:13.553Z,102934.33
2019-01-02T14:58:43.314Z,102940.97
2019-01-02T15:01:13.088Z,102949.53
2019-01-02T15:03:43.022Z,102944.28
2019-01-02T15:06:12.780Z,102941.35
2019-01-02T15:08:42.588Z,102933.03
2019-01-02T15:11:12.394Z,102944.45
2019-01-02T15:13:42.180Z,102943.77
2019-01-02T15:16:11.997Z,102946.27
2019-01-02T15:18:41.798Z,102945.45
2019-01-02T15:21:11.571Z,102951.15
2019-01-02T15:23:41.346Z,102953.27
2019-01-02T15:26:11.152Z,102952.27
2019-01-02T15:28:40.906Z,102954.56
2019-01-02T15:31:10.907Z,102959.16
2019-01-02T15:33:40.718Z,102959.44
2019-01-02T15:36:10.524Z,102961.25
2019-01-02T15:38:40.307Z,102972.94
2019-01-02T15:41:10.094Z,102967.49
2019-01-02T15:43:40.202Z,102967.72
2019-01-02T15:46:11.303Z,102976.64
2019-01-02T15:48:41.270Z,102977.88
2019-01-02T15:51:11.052Z,102975.59
2019-01-02T15:53:40.824Z,102982.37
2019-01-02T15:56:10.606Z,102982.07
2019-01-02T15:58:40.416Z,102992.86
2019-01-02T16:01:10.186Z,102992.26
2019-01-02T16:03:40.022Z,102993.52
2019-01-02T16:06:09.835Z,103000.86
2019-01-02T16:08:39.617Z,102995.27
2019-01-02T16:11:09.403Z,103009.79
2019-01-02T16:13:39.202Z,103006.09
2019-01-02T16:16:09.172Z,103011.83
2019-01-02T16:18:39.253Z,103012.37
2019-01-02T16:21:09.076Z,103018.77
2019-01-02T16:23:38.827Z,103023.71
2019-01-02T16:26:08.586Z,103018.12
2019-01-02T16:28:38.438Z,103022.62
2019-01-02T16:31:08.646Z,103022.48
2019-01-02T16:33:38.746Z,103031.53
2019-01-02T16:36:08.511Z,103040.97
2019-01-02T16:38:38.295Z,103037.09
2019-01-02T16:41:08.173Z,103036.87
2019-01-02T16:43:37.990Z,103036.87
2019-01-02T16:46:07.878Z,103034.27
2019-01-02T16:48:37.706Z,103041.08
2019-01-02T16:51:07.489Z,103043.68
2019-01-02T16:53:37.573Z,103043.52
2019-01-02T16:56:07.335Z,103041.95
2019-01-02T16:58:37.110Z,103045.82
2019-01-02T17:01:06.870Z,103048.30
2019-01-02T17:03:36.640Z,103049.59
2019-01-02T17:06:06.397Z,103050.23
2019-01-02T17:08:36.365Z,103050.53
2019-01-02T17:11:06.134Z,103054.63
2019-01-02T17:13:35.932Z,103051.55
2019-01-02T17:16:05.712Z,103052.05
2019-01-02T17:18:35.617Z,103057.17
2019-01-02T17:21:05.479Z,103051.23
2019-01-02T17:23:35.305Z,103055.20
2019-01-02T17:26:05.260Z,103061.81
2019-01-02T17:28:35.075Z,103059.88
2019-01-02T17:31:04.869Z,103064.50
2019-01-02T17:33:34.635Z,103059.52
2019-01-02T17:36:04.775Z,103060.03
2019-01-02T17:38:34.522Z,103060.14
2019-01-02T17:41:04.277Z,103064.17
2019-01-02T17:43:34.062Z,103063.73
2019-01-02T17:46:03.876Z,103075.06
2019-01-02T17:48:33.688Z,103076.05
2019-01-02T17:51:03.477Z,103082.58
2019-01-02T17:53:33.246Z,103087.42
2019-01-02T17:56:03.016Z,103080.68
2019-01-02T17:58:32.915Z,103088.61
2019-01-02T18:01:02.717Z,103085.84
2019-01-02T18:03:32.590Z,103086.45
2019-01-02T18:06:02.401Z,103087.94
2019-01-02T18:08:32.202Z,103092.57
2019-01-02T18:11:01.999Z,103094.34
2019-01-02T18:13:31.812Z,103093.12
2019-01-02T18:16:01.606Z,103097.06
2019-01-02T18:18:31.377Z,103096.74
2019-01-02T18:21:01.178Z,103098.98
2019-01-02T18:23:30.957Z,103098.17
2019-01-02T18:26:00.755Z,103097.15
2019-01-02T18:28:30.664Z,103102.23
2019-01-02T18:31:00.485Z,103101.94
2019-01-02T18:33:30.283Z,103112.02
2019-01-02T18:36:00.079Z,103114.43
2019-01-02T18:38:29.882Z,103104.49
2019-01-02T18:40:59.658Z,103106.03
2019-01-02T18:43:29.424Z,103108.95
2019-01-02T18:45:59.335Z,103116.66
2019-01-02T18:48:29.128Z,103113.92
2019-01-02T18:50:58.886Z,103113.55
2019-01-02T18:53:28.668Z,103112.13
2019-01-02T18:55:58.862Z,103122.58
2019-01-02T18:58:28.654Z,103115.20
2019-01-02T19:00:59.423Z,103113.96
2019-01-02T19:03:29.321Z,103123.75
2019-01-02T19:05:59.148Z,103128.30
2019-01-02T19:08:28.936Z,103125.91
2019-01-02T19:11:00.244Z,103127.11
2019-01-02T19:13:29.989Z,103125.06
2019-01-02T19:15:59.768Z,103133.12
2019-01-02T19:18:29.555Z,103138.03
2019-01-02T19:20:59.334Z,103141.36
2019-01-02T19:23:29.159Z,103141.67
2019-01-02T19:26:00.933Z,103144.77
2019-01-02T19:28:30.444Z,103144.98
2019-01-02T19:31:00.255Z,103147.28
2019-01-02T19:33:30.055Z,103148.73
2019-01-02T19:35:59.822Z,103144.39
2019-01-02T19:38:29.828Z,103150.69
2019-01-02T19:41:00.742Z,103144.98
2019-01-02T19:43:30.474Z,103153.81
2019-01-02T19:46:00.389Z,103158.97
2019-01-02T19:48:30.207Z,103157.05
2019-01-02T19:51:00.028Z,103153.73
2019-01-02T19:53:29.902Z,103158.37
2019-01-02T19:55:59.728Z,103149.25
2019-01-02T19:58:29.490Z,103152.05
2019-01-02T20:00:59.315Z,103151.98
2019-01-02T20:03:29.130Z,103157.48
2019-01-02T20:05:58.972Z,103154.48
2019-01-02T20:08:28.769Z,103161.97
2019-01-02T20:10:58.578Z,103155.83
2019-01-02T20:13:28.391Z,103162.73
2019-01-02T20:16:01.499Z,103156.64
2019-01-02T20:18:32.196Z,103161.08
2019-01-02T20:21:04.107Z,103155.47
2019-01-02T20:23:34.006Z,103157.42
2019-01-02T20:26:03.757Z,103161.38
2019-01-02T20:28:33.594Z,103165.00
2019-01-02T20:31:03.361Z,103160.89
2019-01-02T20:33:33.141Z,103147.86
2019-01-02T20:36:02.929Z,103147.59
2019-01-02T20:38:32.801Z,103155.72
2019-01-02T20:41:02.686Z,103146.21
2019-01-02T20:43:32.586Z,103150.70
2019-01-02T20:46:02.415Z,103146.96
2019-01-02T20:48:51.483Z,103146.52
2019-01-02T20:51:21.279Z,103143.96
2019-01-02T20:53:51.093Z,103144.63
2019-01-02T20:56:20.900Z,103138.63
2019-01-02T20:58:50.718Z,103140.05
2019-01-02T21:01:23.114Z,103134.66
2019-01-02T21:03:53.044Z,103142.00
2019-01-02T21:06:22.834Z,103141.43
2019-01-02T21:08:52.659Z,103129.77
2019-01-02T21:11:22.499Z,103131.98
2019-01-02T21:13:52.274Z,103130.04
2019-01-02T21:16:22.182Z,103136.14
2019-01-02T21:18:51.947Z,103132.98
2019-01-02T21:21:21.912Z,103134.41
2019-01-02T21:23:51.723Z,103137.22
2019-01-02T21:26:21.482Z,103130.77
2019-01-02T21:28:51.421Z,103132.13
2019-01-02T21:31:21.306Z,103134.11
2019-01-02T21:33:51.120Z,103128.09
2019-01-02T21:36:20.968Z,103131.55
2019-01-02T21:38:51.393Z,103126.55
2019-01-02T21:41:21.164Z,103127.26
2019-01-02T21:43:50.973Z,103126.67
2019-01-02T21:46:20.863Z,103128.43
2019-01-02T21:48:50.650Z,103123.49
2019-01-02T21:51:20.454Z,103116.91
2019-01-02T21:53:50.592Z,103123.20
2019-01-02T21:56:20.476Z,103120.88
2019-01-02T21:58:50.274Z,103124.55
2019-01-02T22:01:20.083Z,103123.22
2019-01-02T22:03:49.904Z,103119.94
2019-01-02T22:06:19.702Z,103113.28
2019-01-02T22:08:49.510Z,103123.86
2019-01-02T22:11:19.643Z,103123.06
2019-01-02T22:13:49.445Z,103123.22
2019-01-02T22:16:19.269Z,103126.08
2019-01-02T22:18:49.140Z,103128.50
2019-01-02T22:21:18.940Z,103126.17
2019-01-02T22:23:48.726Z,103127.53
2019-01-02T22:26:18.555Z,103132.10
2019-01-02T22:28:48.369Z,103126.94
2019-01-02T22:31:18.163Z,103130.97
2019-01-02T22:33:47.959Z,103130.98
2019-01-02T22:36:17.762Z,103131.05
2019-01-02T22:38:47.675Z,103139.51
2019-01-02T22:41:19.128Z,103142.81
2019-01-02T22:43:48.919Z,103144.98
2019-01-02T22:46:18.758Z,103147.85
2019-01-02T22:48:48.567Z,103148.98
2019-01-02T22:51:18.378Z,103149.44
2019-01-02T22:53:48.194Z,103149.37
2019-01-02T22:56:17.978Z,103149.59
2019-01-02T22:58:47.880Z,103150.85
2019-01-02T23:01:19.309Z,103146.44
2019-01-02T23:03:53.730Z,103157.56
2019-01-02T23:06:28.015Z,103149.66
2019-01-02T23:09:15.639Z,103152.27
2019-01-02T23:11:45.601Z,103167.19
2019-01-02T23:14:16.989Z,103162.91
2019-01-02T23:16:52.493Z,103157.29
2019-01-02T23:19:23.881Z,103167.78
2019-01-02T23:22:07.089Z,103166.63
2019-01-02T23:24:38.454Z,103172.88
2019-01-02T23:27:09.821Z,103176.27
2019-01-02T23:29:57.307Z,103167.66
2019-01-02T23:32:45.016Z,103170.16
2019-01-02T23:35:18.958Z,103162.25
2019-01-02T23:37:53.152Z,103161.87
2019-01-02T23:40:30.371Z,103164.07
2019-01-02T23:43:18.382Z,103163.19
2019-01-02T23:46:05.988Z,103169.29
2019-01-02T23:48:55.721Z,103167.84
2019-01-02T23:51:29.913Z,103162.84
2019-01-02T23:54:01.290Z,103168.41
2019-01-02T23:56:38.861Z,103172.72
2019-01-02T23:59:10.198Z,103180.16
